Time;durP1;ratioP1;P1;durP2;ratioP2;P2;SDS_P1;SDS_P2;PMS_P1;PMS_P2;Temp;Humidity;BMP_temperature;BMP_pressure;BME280_temperature;BME280_humidity;BME280_pressure;Samples;Min_cycle;Max_cycle;Signal;HPM_P1;HPM_P2
2022/03/28 00:00:25;;;;;;;1.95;0.50;;;;;;;-4.90;79.54;100001.91;5088798;28;20974;-71
2022/03/28 00:02:51;;;;;;;0.85;0.50;;;;;;;-4.92;79.61;99986.06;5087326;28;20112;-73
2022/03/28 00:05:17;;;;;;;0.82;0.43;;;;;;;-4.92;79.77;99971.84;5094265;28;20486;-73
2022/03/28 00:07:43;;;;;;;1.00;0.75;;;;;;;-4.92;80.46;99970.00;5089129;28;20040;-73
2022/03/28 00:10:11;;;;;;;0.50;0.32;;;;;;;-4.94;80.99;99949.81;5089726;28;20039;-72
2022/03/28 00:12:38;;;;;;;1.42;0.80;;;;;;;-5.06;81.41;99946.88;5090472;27;20516;-72
2022/03/28 00:15:05;;;;;;;1.13;0.77;;;;;;;-5.12;81.83;99936.13;5087155;28;20120;-74
2022/03/28 00:17:32;;;;;;;0.65;0.50;;;;;;;-5.14;82.17;99922.13;5089721;28;20513;-73
2022/03/28 00:19:59;;;;;;;1.95;0.68;;;;;;;-5.13;82.07;99907.75;5090460;27;20497;-73
2022/03/28 00:22:24;;;;;;;1.02;0.73;;;;;;;-5.12;81.99;99882.66;5089376;28;20042;-74
2022/03/28 00:24:50;;;;;;;1.38;0.90;;;;;;;-5.13;82.33;99872.97;5078334;28;20063;-73
2022/03/28 00:27:17;;;;;;;2.83;0.82;;;;;;;-5.17;82.42;99867.19;5089087;28;20036;-72
2022/03/28 00:29:44;;;;;;;2.15;0.70;;;;;;;-5.25;83.05;99851.31;5090113;27;20032;-72
2022/03/28 00:32:10;;;;;;;2.63;0.65;;;;;;;-5.28;83.23;99841.84;5069605;28;20360;-71
2022/03/28 00:34:35;;;;;;;2.15;0.80;;;;;;;-5.33;83.54;99832.75;5090504;27;20316;-73
2022/03/28 00:37:01;;;;;;;4.25;0.60;;;;;;;-5.38;83.92;99817.31;5089656;27;20412;-73
2022/03/28 00:39:27;;;;;;;1.02;0.50;;;;;;;-5.41;83.91;99804.31;5091012;28;20036;-72
2022/03/28 00:41:52;;;;;;;0.60;0.60;;;;;;;-5.44;83.87;99796.72;5087994;28;20505;-73
2022/03/28 00:44:19;;;;;;;1.23;0.45;;;;;;;-5.41;84.23;99776.78;5090601;27;20993;-73
2022/03/28 00:46:44;;;;;;;1.85;0.70;;;;;;;-5.41;84.07;99769.56;5087512;28;20035;-72
2022/03/28 00:49:10;;;;;;;0.65;0.60;;;;;;;-5.43;84.45;99755.59;5102459;27;20038;-72
2022/03/28 00:51:36;;;;;;;0.93;0.60;;;;;;;-5.48;84.79;99744.69;5091730;27;21057;-72
2022/03/28 00:54:03;;;;;;;0.50;0.47;;;;;;;-5.50;84.87;99728.00;5087467;28;20394;-72
2022/03/28 00:56:29;;;;;;;1.20;0.55;;;;;;;-5.52;85.05;99711.34;5089596;27;20032;-73
2022/03/28 00:58:55;;;;;;;4.43;0.93;;;;;;;-5.51;84.93;99695.13;5087928;28;20032;-72
2022/03/28 01:01:20;;;;;;;1.45;0.60;;;;;;;-5.51;85.07;99675.59;5087940;28;20406;-72
2022/03/28 01:03:46;;;;;;;1.00;0.63;;;;;;;-5.55;85.54;99672.50;5092362;28;20047;-72
2022/03/28 01:06:12;;;;;;;0.88;0.70;;;;;;;-5.53;85.72;99656.25;5069826;28;20135;-72
2022/03/28 01:08:38;;;;;;;3.58;0.60;;;;;;;-5.53;84.94;99632.19;5088014;28;20043;-72
2022/03/28 01:11:11;;;;;;;0.82;0.43;;;;;;;-5.57;85.61;99618.38;5088597;27;20812;-73
2022/03/28 01:13:39;;;;;;;0.95;0.75;;;;;;;-5.57;86.05;99612.22;5088409;28;20039;-72
2022/03/28 01:16:05;;;;;;;0.60;0.60;;;;;;;-5.62;85.61;99604.81;5062388;28;20047;-72
2022/03/28 01:18:31;;;;;;;1.02;0.70;;;;;;;-5.61;86.07;99585.09;5093815;27;20572;-72
2022/03/28 01:20:58;;;;;;;1.75;0.80;;;;;;;-5.59;85.74;99577.69;5087520;28;20028;-72
2022/03/28 01:23:24;;;;;;;0.82;0.70;;;;;;;-5.64;86.20;99569.47;5087537;28;20108;-72
2022/03/28 01:25:53;;;;;;;2.33;0.60;;;;;;;-5.65;85.69;99551.78;5086906;28;20051;-72
2022/03/28 01:28:24;;;;;;;0.80;0.50;;;;;;;-5.62;86.43;99539.88;5089267;28;21890;-72
2022/03/28 01:30:50;;;;;;;0.50;0.50;;;;;;;-5.64;86.41;99512.53;5087232;28;20067;-72
2022/03/28 01:33:16;;;;;;;1.42;0.70;;;;;;;-5.62;86.35;99507.78;5090092;28;20123;-73
2022/03/28 01:35:43;;;;;;;0.88;0.50;;;;;;;-5.60;86.24;99495.88;5088847;28;20161;-73
2022/03/28 01:38:11;;;;;;;0.93;0.50;;;;;;;-5.56;86.27;99470.38;5088479;28;20036;-72
2022/03/28 01:40:39;;;;;;;1.85;0.60;;;;;;;-5.54;86.94;99475.53;5089510;28;20036;-72
2022/03/28 01:43:05;;;;;;;2.13;0.60;;;;;;;-5.54;86.51;99473.69;5086531;27;20620;-72
2022/03/28 01:45:31;;;;;;;0.50;0.40;;;;;;;-5.51;86.37;99456.41;5089221;28;20036;-73
2022/03/28 01:47:57;;;;;;;1.27;0.40;;;;;;;-5.50;86.51;99440.19;5090746;28;20418;-72
2022/03/28 01:50:22;;;;;;;0.68;0.40;;;;;;;-5.48;86.38;99430.09;5089759;28;21087;-72
2022/03/28 01:52:48;;;;;;;1.38;0.70;;;;;;;-5.52;87.19;99412.00;5101581;28;20387;-73
2022/03/28 01:55:14;;;;;;;0.52;0.50;;;;;;;-5.58;87.35;99405.63;5087905;28;20093;-73
2022/03/28 01:57:41;;;;;;;0.95;0.65;;;;;;;-5.56;86.85;99389.38;5088050;28;20085;-73
2022/03/28 02:00:10;;;;;;;0.77;0.50;;;;;;;-5.60;86.91;99385.50;5087425;28;20040;-73
2022/03/28 02:02:36;;;;;;;2.15;0.50;;;;;;;-5.60;87.22;99380.16;5086389;28;20632;-73
2022/03/28 02:05:03;;;;;;;0.65;0.50;;;;;;;-5.65;87.43;99364.75;5067155;28;20055;-72
2022/03/28 02:07:29;;;;;;;3.10;0.82;;;;;;;-5.68;87.69;99353.66;5089249;28;20035;-71
2022/03/28 02:09:55;;;;;;;2.05;0.60;;;;;;;-5.65;87.72;99350.56;5069918;28;20035;-72
2022/03/28 02:12:21;;;;;;;0.75;0.65;;;;;;;-5.63;87.70;99338.63;5088539;28;20529;-72
2022/03/28 02:14:46;;;;;;;0.75;0.75;;;;;;;-5.64;88.20;99322.81;5085598;28;20142;-72
2022/03/28 02:17:12;;;;;;;1.02;0.70;;;;;;;-5.65;88.38;99300.63;5088748;28;20048;-72
2022/03/28 02:19:38;;;;;;;2.58;0.75;;;;;;;-5.60;88.52;99286.63;5086232;28;20604;-72
2022/03/28 02:22:04;;;;;;;3.33;1.25;;;;;;;-5.59;88.60;99282.91;5065782;28;20035;-73
2022/03/28 02:24:30;;;;;;;1.63;0.73;;;;;;;-5.62;88.34;99261.97;5087150;28;20039;-72
2022/03/28 02:26:56;;;;;;;0.88;0.60;;;;;;;-5.61;88.32;99248.38;5087036;28;21456;-71
2022/03/28 02:29:21;;;;;;;1.67;0.80;;;;;;;-5.63;88.51;99238.94;5087929;28;20043;-71
2022/03/28 02:31:47;;;;;;;6.80;0.90;;;;;;;-5.62;88.47;99220.03;5087376;28;20028;-72
2022/03/28 02:34:13;;;;;;;0.95;0.70;;;;;;;-5.59;88.21;99210.75;5086061;28;20039;-72
2022/03/28 02:36:39;;;;;;;0.70;0.65;;;;;;;-5.53;88.33;99212.59;5088417;28;20054;-72
2022/03/28 02:39:05;;;;;;;2.95;0.70;;;;;;;-5.51;88.36;99200.66;5089667;28;20040;-72
2022/03/28 02:41:31;;;;;;;1.55;0.50;;;;;;;-5.46;88.60;99184.81;5105430;28;20450;-72
2022/03/28 02:43:56;;;;;;;2.08;0.60;;;;;;;-5.42;89.04;99176.34;5085193;28;20047;-72
2022/03/28 02:46:22;;;;;;;0.73;0.73;;;;;;;-5.42;89.25;99171.84;5088156;28;20490;-72
2022/03/28 02:48:47;;;;;;;1.88;0.68;;;;;;;-5.39;88.84;99143.84;5115236;28;20043;-72
2022/03/28 02:51:13;;;;;;;1.10;0.80;;;;;;;-5.38;88.99;99132.97;5113435;28;20080;-72
2022/03/28 02:53:39;;;;;;;0.73;0.70;;;;;;;-5.38;88.88;99121.44;5114353;28;20042;-72
2022/03/28 02:56:05;;;;;;;1.45;0.82;;;;;;;-5.36;88.63;99112.19;5107445;28;20149;-72
2022/03/28 02:58:31;;;;;;;1.50;0.70;;;;;;;-5.35;89.34;99100.47;5109981;28;20063;-72
2022/03/28 03:00:57;;;;;;;0.90;0.60;;;;;;;-5.34;89.31;99079.88;5120626;28;20054;-72
2022/03/28 03:03:23;;;;;;;0.65;0.60;;;;;;;-5.33;89.24;99079.66;5096466;28;20071;-72
2022/03/28 03:05:49;;;;;;;1.90;0.80;;;;;;;-5.35;89.20;99064.88;5108171;28;20071;-71
2022/03/28 03:08:16;;;;;;;0.82;0.60;;;;;;;-5.40;89.14;99054.00;5105980;28;20047;-72
2022/03/28 03:10:43;;;;;;;1.02;0.60;;;;;;;-5.48;89.38;99039.88;5100759;28;20069;-72
2022/03/28 03:13:09;;;;;;;4.18;0.73;;;;;;;-5.53;89.53;99023.69;5094148;28;20512;-72
2022/03/28 03:15:34;;;;;;;1.55;0.73;;;;;;;-5.55;90.22;99027.63;5109466;28;20052;-72
2022/03/28 03:18:00;;;;;;;1.33;0.70;;;;;;;-5.50;90.51;99009.06;5094900;28;20070;-72
2022/03/28 03:20:25;;;;;;;1.30;0.85;;;;;;;-5.48;90.88;98997.13;5083322;28;20458;-73
2022/03/28 03:22:51;;;;;;;2.15;0.65;;;;;;;-5.48;91.13;98978.41;5107943;28;20394;-73
2022/03/28 03:25:17;;;;;;;2.05;0.60;;;;;;;-5.46;91.64;98965.66;5092610;28;20570;-73
2022/03/28 03:27:43;;;;;;;1.85;0.75;;;;;;;-5.43;91.38;98961.72;5098189;28;20028;-73
2022/03/28 03:30:14;;;;;;;0.85;0.85;;;;;;;-5.44;90.82;98938.69;5090199;28;20077;-72
2022/03/28 03:32:40;;;;;;;0.82;0.68;;;;;;;-5.44;91.68;98921.84;5090231;28;20047;-73
2022/03/28 03:35:07;;;;;;;2.05;0.80;;;;;;;-5.47;91.12;98915.09;5090604;28;20048;-73
2022/03/28 03:37:33;;;;;;;1.25;0.80;;;;;;;-5.42;91.26;98893.03;5107210;28;20422;-72
2022/03/28 03:39:59;;;;;;;0.77;0.75;;;;;;;-5.43;91.30;98870.84;5090394;28;20510;-72
2022/03/28 03:42:25;;;;;;;0.60;0.60;;;;;;;-5.44;91.47;98871.06;5096911;28;20509;-72
2022/03/28 03:44:50;;;;;;;1.55;0.70;;;;;;;-5.44;91.78;98858.53;5112907;28;20054;-73
2022/03/28 03:47:16;;;;;;;0.80;0.75;;;;;;;-5.41;91.90;98843.91;5094005;28;20032;-71
2022/03/28 03:49:41;;;;;;;1.58;0.70;;;;;;;-5.41;91.92;98819.84;5094068;28;20472;-73
2022/03/28 03:52:07;;;;;;;2.33;0.70;;;;;;;-5.40;91.48;98808.94;5093978;28;20111;-73
2022/03/28 03:54:33;;;;;;;1.15;0.90;;;;;;;-5.39;91.93;98791.03;5094118;28;20145;-73
2022/03/28 03:57:25;;;;;;;0.95;0.63;;;;;;;-5.34;91.75;98772.50;5093112;28;20032;-73
2022/03/28 03:59:50;;;;;;;0.82;0.60;;;;;;;-5.31;92.09;98751.47;5093280;28;20040;-74
2022/03/28 04:02:16;;;;;;;0.70;0.70;;;;;;;-5.30;92.65;98742.41;5089596;27;20091;-73
2022/03/28 04:04:42;;;;;;;0.57;0.57;;;;;;;-5.29;92.30;98737.88;5069817;28;20628;-73
2022/03/28 04:07:08;;;;;;;1.63;0.73;;;;;;;-5.26;92.88;98729.41;5089061;28;20047;-72
2022/03/28 04:09:33;;;;;;;1.35;0.80;;;;;;;-5.24;92.65;98719.28;5070874;28;20063;-72
2022/03/28 04:11:59;;;;;;;2.20;0.90;;;;;;;-5.23;92.71;98716.38;5090585;27;20107;-71
2022/03/28 04:14:25;;;;;;;2.60;1.25;;;;;;;-5.17;92.82;98694.13;5069710;28;20130;-73
2022/03/28 04:16:51;;;;;;;1.70;1.10;;;;;;;-5.13;92.63;98675.75;5071286;28;20127;-73
2022/03/28 04:19:16;;;;;;;1.88;0.90;;;;;;;-5.09;92.88;98666.22;5089848;28;20140;-73
2022/03/28 04:21:43;;;;;;;3.10;1.00;;;;;;;-5.04;92.55;98668.22;5089969;28;20028;-73
2022/03/28 04:24:08;;;;;;;1.23;0.55;;;;;;;-5.00;92.42;98645.34;5089479;28;20086;-71
2022/03/28 04:26:34;;;;;;;1.20;0.70;;;;;;;-4.99;92.68;98669.16;5065099;28;20052;-73
2022/03/28 04:29:00;;;;;;;2.38;1.02;;;;;;;-4.95;92.65;98664.16;5111690;27;20490;-73
2022/03/28 04:31:25;;;;;;;1.00;0.80;;;;;;;-4.94;93.32;98647.91;5127305;27;20042;-72
2022/03/28 04:33:51;;;;;;;1.38;0.95;;;;;;;-4.93;93.16;98656.72;5102575;27;20035;-73
2022/03/28 04:36:16;;;;;;;2.75;1.00;;;;;;;-4.90;93.23;98634.88;5121459;27;20046;-72
2022/03/28 04:38:42;;;;;;;1.38;1.00;;;;;;;-4.86;93.59;98620.81;5127609;27;20044;-72
2022/03/28 04:41:08;;;;;;;1.45;0.70;;;;;;;-4.83;93.31;98624.06;5097748;27;20266;-72
2022/03/28 04:43:34;;;;;;;2.83;0.93;;;;;;;-4.81;93.39;98601.41;5101504;27;20036;-73
2022/03/28 04:46:00;;;;;;;1.38;0.77;;;;;;;-4.78;92.79;98603.59;5102713;27;20140;-73
2022/03/28 04:48:25;;;;;;;2.75;0.90;;;;;;;-4.75;93.43;98596.97;5115794;27;20035;-73
2022/03/28 04:50:51;;;;;;;1.08;0.98;;;;;;;-4.71;93.45;98603.47;5117832;27;20042;-73
2022/03/28 04:53:17;;;;;;;1.00;0.90;;;;;;;-4.68;93.18;98574.41;5119543;27;20031;-72
2022/03/28 04:55:43;;;;;;;2.05;0.90;;;;;;;-4.67;93.52;98554.63;5116465;27;20157;-72
2022/03/28 04:58:09;;;;;;;2.35;1.20;;;;;;;-4.67;93.84;98549.28;5106251;27;20032;-73
2022/03/28 05:00:34;;;;;;;1.15;0.77;;;;;;;-4.63;93.08;98538.94;5123744;27;20043;-73
2022/03/28 05:03:00;;;;;;;1.73;0.82;;;;;;;-4.60;93.24;98531.22;5101767;27;20036;-73
2022/03/28 05:05:25;;;;;;;1.77;0.88;;;;;;;-4.57;93.97;98530.75;5103969;27;20035;-73
2022/03/28 05:07:51;;;;;;;1.45;0.82;;;;;;;-4.53;94.06;98519.59;5113241;27;20032;-73
2022/03/28 05:10:17;;;;;;;4.97;1.75;;;;;;;-4.48;93.67;98514.34;5116224;27;20063;-73
2022/03/28 05:12:43;;;;;;;1.25;0.93;;;;;;;-4.46;93.56;98490.84;5098821;28;20044;-73
2022/03/28 05:15:08;;;;;;;1.17;1.00;;;;;;;-4.42;93.39;98489.31;5100502;27;20408;-73
2022/03/28 05:17:34;;;;;;;1.92;1.38;;;;;;;-4.36;93.34;98470.41;5118492;27;20046;-73
2022/03/28 05:20:00;;;;;;;2.35;0.98;;;;;;;-4.32;94.00;98460.88;5095507;28;20047;-73
2022/03/28 05:22:26;;;;;;;1.13;0.80;;;;;;;-4.29;94.18;98451.56;5093335;27;20122;-73
2022/03/28 05:24:53;;;;;;;1.38;1.05;;;;;;;-4.22;94.00;98454.91;5085472;27;20131;-72
2022/03/28 05:27:19;;;;;;;1.40;1.00;;;;;;;-4.18;93.46;98442.66;5116540;27;20583;-73
2022/03/28 05:29:45;;;;;;;2.25;1.35;;;;;;;-4.14;94.21;98443.00;5102099;27;20540;-72
2022/03/28 05:32:11;;;;;;;2.00;1.08;;;;;;;-4.09;93.85;98422.47;5094682;28;20063;-72
2022/03/28 05:34:37;;;;;;;1.45;1.30;;;;;;;-4.07;94.01;98415.00;5090428;28;20562;-72
2022/03/28 05:37:09;;;;;;;3.00;1.10;;;;;;;-4.01;93.65;98414.03;5104476;27;20032;-72
2022/03/28 05:39:36;;;;;;;1.45;1.25;;;;;;;-4.00;94.03;98386.19;5101434;27;20039;-73
2022/03/28 05:42:03;;;;;;;2.58;1.02;;;;;;;-3.98;93.75;98381.44;5111960;28;20036;-73
2022/03/28 05:44:29;;;;;;;2.58;1.10;;;;;;;-3.95;93.51;98390.84;5126135;27;20046;-72
2022/03/28 05:46:55;;;;;;;2.00;1.38;;;;;;;-3.88;93.91;98390.69;5103710;27;20032;-72
2022/03/28 05:49:22;;;;;;;3.03;1.40;;;;;;;-3.81;93.88;98372.59;5127163;27;20039;-72
2022/03/28 05:51:49;;;;;;;1.17;0.70;;;;;;;-3.77;93.63;98365.69;5121262;27;20572;-72
2022/03/28 05:54:15;;;;;;;2.97;1.33;;;;;;;-3.72;93.72;98352.34;5117721;27;20040;-72
2022/03/28 05:56:40;;;;;;;5.13;1.45;;;;;;;-3.69;93.75;98325.88;5107886;27;20131;-72
2022/03/28 05:59:07;;;;;;;4.45;1.70;;;;;;;-3.62;94.48;98323.03;5128515;27;20448;-72
2022/03/28 06:01:34;;;;;;;2.05;1.23;;;;;;;-3.55;94.26;98320.16;5116511;27;20031;-72
2022/03/28 06:04:00;;;;;;;2.10;1.20;;;;;;;-3.49;94.01;98322.66;5123388;27;20507;-72
2022/03/28 06:06:26;;;;;;;4.90;1.63;;;;;;;-3.40;94.10;98310.47;5099438;28;20051;-72
2022/03/28 06:08:52;;;;;;;3.53;1.40;;;;;;;-3.30;94.23;98299.06;5127548;27;20035;-72
2022/03/28 06:11:18;;;;;;;5.50;1.35;;;;;;;-3.24;94.42;98282.00;5081036;27;20037;-72
2022/03/28 06:13:44;;;;;;;2.40;1.50;;;;;;;-3.16;94.02;98280.72;5101150;28;20119;-72
2022/03/28 06:16:09;;;;;;;2.28;1.20;;;;;;;-3.09;95.12;98270.63;5080493;28;20138;-72
2022/03/28 06:18:35;;;;;;;1.35;1.20;;;;;;;-3.00;94.19;98263.75;5122787;27;20095;-72
2022/03/28 06:21:01;;;;;;;1.42;1.30;;;;;;;-2.92;94.68;98254.47;5111100;27;20036;-72
2022/03/28 06:23:26;;;;;;;2.03;1.45;;;;;;;-2.84;94.91;98249.44;5122168;27;20122;-72
2022/03/28 06:25:52;;;;;;;2.47;1.48;;;;;;;-2.74;94.78;98251.41;5116405;27;20043;-72
2022/03/28 06:28:18;;;;;;;1.67;1.30;;;;;;;-2.69;95.44;98256.84;5102574;28;20067;-73
2022/03/28 06:30:43;;;;;;;1.55;0.95;;;;;;;-2.61;94.97;98256.34;5100091;28;20070;-72
2022/03/28 06:33:10;;;;;;;1.75;1.55;;;;;;;-2.53;95.17;98252.41;5096336;27;20056;-72
2022/03/28 06:35:36;;;;;;;3.05;1.77;;;;;;;-2.45;95.00;98238.50;5097542;28;20047;-73
2022/03/28 06:38:02;;;;;;;1.55;1.10;;;;;;;-2.36;94.67;98238.88;5115635;27;20080;-73
2022/03/28 06:40:28;;;;;;;2.47;1.10;;;;;;;-2.28;95.05;98233.81;5104829;27;20066;-73
2022/03/28 06:42:53;;;;;;;2.95;1.33;;;;;;;-2.20;95.46;98230.69;5075852;28;20522;-73
2022/03/28 06:45:19;;;;;;;1.70;1.40;;;;;;;-2.11;95.07;98225.63;5090071;28;20148;-73
2022/03/28 06:47:50;;;;;;;2.80;1.30;;;;;;;-2.01;95.09;98216.84;5123326;28;20390;-72
2022/03/28 06:50:16;;;;;;;3.17;1.27;;;;;;;-1.91;95.08;98222.25;5097567;28;20089;-72
2022/03/28 06:52:41;;;;;;;2.15;1.30;;;;;;;-1.83;95.31;98211.03;5124894;28;20035;-73
2022/03/28 06:55:07;;;;;;;2.20;1.33;;;;;;;-1.75;95.60;98207.03;5102480;28;20508;-73
2022/03/28 06:57:33;;;;;;;2.85;1.33;;;;;;;-1.65;95.09;98193.66;5126844;28;20081;-73
2022/03/28 06:59:59;;;;;;;2.72;1.42;;;;;;;-1.55;95.26;98185.63;5121434;28;20574;-73
2022/03/28 07:02:24;;;;;;;3.30;1.92;;;;;;;-1.43;95.31;98188.09;5096419;28;20027;-73
2022/03/28 07:04:50;;;;;;;2.10;1.70;;;;;;;-1.32;94.98;98176.28;5099362;28;20036;-72
2022/03/28 07:07:16;;;;;;;3.03;1.77;;;;;;;-1.23;95.88;98177.38;5113394;28;20383;-73
2022/03/28 07:09:41;;;;;;;2.83;1.80;;;;;;;-1.12;95.18;98176.34;5108214;28;20031;-73
2022/03/28 07:12:09;;;;;;;4.00;1.38;;;;;;;-0.99;95.98;98170.47;5101290;28;20077;-73
2022/03/28 07:14:34;;;;;;;4.57;1.92;;;;;;;-0.85;95.55;98165.38;5123685;28;20504;-73
2022/03/28 07:17:01;;;;;;;4.22;1.45;;;;;;;-0.70;95.84;98159.97;5114127;28;20040;-73
2022/03/28 07:19:26;;;;;;;3.50;1.40;;;;;;;-0.54;96.44;98155.41;5124670;27;20561;-73
2022/03/28 07:21:52;;;;;;;3.40;1.65;;;;;;;-0.42;96.20;98152.44;5119943;27;20036;-73
2022/03/28 07:24:18;;;;;;;2.88;1.15;;;;;;;-0.33;96.16;98148.94;5100407;27;20035;-73
2022/03/28 07:26:45;;;;;;;2.83;1.67;;;;;;;-0.23;96.44;98136.53;5122931;27;20092;-73
2022/03/28 07:29:11;;;;;;;3.30;1.70;;;;;;;-0.15;96.78;98135.97;5131980;27;20058;-73
2022/03/28 07:31:39;;;;;;;2.92;1.58;;;;;;;-0.08;96.38;98131.09;5121559;27;20111;-73
2022/03/28 07:36:52;;;;;;;5.78;1.58;;;;;;;0.11;96.30;98124.03;5116883;27;20089;-72
2022/03/28 07:39:22;;;;;;;4.45;1.58;;;;;;;0.20;96.71;98119.72;5107066;28;20032;-72
2022/03/28 07:41:49;;;;;;;2.97;1.60;;;;;;;0.29;96.17;98119.94;5112248;27;20035;-72
2022/03/28 07:44:15;;;;;;;2.47;1.25;;;;;;;0.34;96.07;98100.22;5103684;28;20043;-73
2022/03/28 07:46:43;;;;;;;5.25;1.30;;;;;;;0.37;96.12;98105.88;5099113;28;20092;-72
2022/03/28 07:49:17;;;;;;;3.58;1.40;;;;;;;0.39;96.12;98097.50;5099941;27;20612;-73
2022/03/28 07:51:43;;;;;;;4.88;1.50;;;;;;;0.42;96.04;98105.03;5113446;27;20093;-73
2022/03/28 07:54:09;;;;;;;3.33;1.40;;;;;;;0.48;95.95;98095.84;5092236;28;20043;-73
2022/03/28 07:56:40;;;;;;;3.22;1.40;;;;;;;0.51;95.88;98101.47;5123208;27;20056;-73
2022/03/28 07:59:06;;;;;;;6.18;1.42;;;;;;;0.58;95.70;98096.59;5130478;27;20042;-73
2022/03/28 08:01:31;;;;;;;2.85;1.30;;;;;;;0.70;95.91;98088.16;5120988;27;20039;-73
2022/03/28 08:03:57;;;;;;;3.83;2.10;;;;;;;0.85;95.59;98082.66;5131017;27;20036;-73
2022/03/28 08:06:22;;;;;;;3.17;1.52;;;;;;;0.91;95.45;98078.03;5105733;27;20035;-73
2022/03/28 08:08:48;;;;;;;3.10;1.50;;;;;;;0.99;95.67;98077.44;5110008;27;20072;-73
2022/03/28 08:11:15;;;;;;;2.72;1.83;;;;;;;1.05;94.71;98062.81;5103473;27;20031;-73
2022/03/28 08:13:41;;;;;;;4.20;2.22;;;;;;;1.12;95.21;98068.69;5126415;27;20039;-72
2022/03/28 08:16:08;;;;;;;2.38;1.45;;;;;;;1.21;94.97;98066.16;5119635;27;20582;-73
2022/03/28 08:18:36;;;;;;;3.83;1.48;;;;;;;1.40;94.75;98069.81;5113044;27;20042;-73
2022/03/28 08:21:01;;;;;;;3.55;1.27;;;;;;;2.01;93.74;98052.13;5120601;27;20031;-73
2022/03/28 08:23:27;;;;;;;2.00;1.30;;;;;;;3.01;93.14;98038.28;5120583;27;20039;-73
2022/03/28 08:25:53;;;;;;;2.72;1.42;;;;;;;4.05;91.48;98044.28;5123972;27;20156;-72
2022/03/28 08:28:19;;;;;;;5.05;1.63;;;;;;;4.70;89.28;98052.97;5125886;27;20039;-73
2022/03/28 08:30:44;;;;;;;3.28;2.08;;;;;;;4.37;88.30;98055.03;5111660;27;20039;-73
2022/03/28 08:33:35;;;;;;;2.10;1.50;;;;;;;3.69;88.53;98068.59;5119489;27;20059;-72
2022/03/28 08:36:01;;;;;;;3.80;1.35;;;;;;;3.28;88.89;98071.97;5102663;28;20043;-73
2022/03/28 08:38:27;;;;;;;2.15;1.38;;;;;;;2.89;88.35;98073.13;5110216;27;20525;-73
2022/03/28 08:40:53;;;;;;;3.03;1.55;;;;;;;2.69;88.57;98066.13;5091186;28;20488;-74
2022/03/28 08:43:20;;;;;;;1.92;1.30;;;;;;;2.51;88.71;98061.50;5086512;28;20043;-73
2022/03/28 08:45:48;;;;;;;2.92;1.20;;;;;;;2.49;89.14;98060.19;5085630;28;20189;-74
2022/03/28 08:48:15;;;;;;;2.85;1.40;;;;;;;2.47;89.39;98063.19;5088070;28;20409;-74
2022/03/28 08:50:49;;;;;;;4.13;1.10;;;;;;;2.56;90.42;98057.91;5102897;27;20035;-74
2022/03/28 08:53:16;;;;;;;2.90;1.30;;;;;;;2.69;90.66;98057.19;5078750;27;20529;-73
2022/03/28 08:55:43;;;;;;;2.60;1.27;;;;;;;2.68;90.39;98063.72;5101457;27;20125;-73
2022/03/28 08:58:10;;;;;;;3.83;1.20;;;;;;;2.71;90.83;98063.91;5121089;27;20144;-73
2022/03/28 09:00:36;;;;;;;4.25;1.60;;;;;;;2.62;90.85;98062.97;5099995;27;20528;-72
2022/03/28 09:03:02;;;;;;;4.25;1.50;;;;;;;2.67;90.20;98056.69;5101169;27;20133;-75
2022/03/28 09:05:33;;;;;;;3.10;1.60;;;;;;;2.85;90.51;98045.03;5127481;27;20501;-73
2022/03/28 09:08:00;;;;;;;3.42;1.40;;;;;;;2.88;90.24;98052.56;5115305;27;20063;-72
2022/03/28 09:10:28;;;;;;;2.13;1.50;;;;;;;2.85;89.64;98049.66;5117594;27;20119;-72
2022/03/28 09:13:11;;;;;;;3.85;1.30;;;;;;;2.73;89.66;98058.22;5110239;27;20047;-72
2022/03/28 09:15:48;;;;;;;3.35;1.50;;;;;;;2.64;89.38;98039.13;5105668;27;20043;-74
2022/03/28 09:18:28;;;;;;;4.15;1.55;;;;;;;2.63;89.61;98045.63;5086715;28;20127;-73
2022/03/28 09:20:56;;;;;;;5.18;1.25;;;;;;;2.61;90.27;98050.53;5118057;27;20092;-73
2022/03/28 09:23:33;;;;;;;4.13;1.65;;;;;;;2.60;90.09;98043.53;5127267;27;20093;-72
2022/03/28 09:26:00;;;;;;;4.20;1.48;;;;;;;2.55;89.56;98050.88;5123082;27;20138;-72
2022/03/28 09:28:38;;;;;;;3.40;1.30;;;;;;;2.47;90.10;98041.53;5100053;28;20067;-73
2022/03/28 09:31:30;;;;;;;2.78;1.25;;;;;;;2.46;89.55;98058.06;5129476;27;20040;-73
2022/03/28 09:33:56;;;;;;;2.83;1.27;;;;;;;2.39;89.78;98045.69;5123116;27;20039;-73
2022/03/28 09:36:40;;;;;;;7.00;1.65;;;;;;;2.28;89.76;98051.53;5126383;27;20046;-74
2022/03/28 09:39:07;;;;;;;2.58;1.38;;;;;;;2.18;89.95;98049.75;5116022;27;20045;-73
2022/03/28 09:41:33;;;;;;;2.35;1.63;;;;;;;2.21;90.56;98051.06;5125904;27;20035;-73
2022/03/28 09:43:59;;;;;;;2.53;1.48;;;;;;;2.25;90.64;98057.50;5122047;27;20471;-74
2022/03/28 09:46:29;;;;;;;3.50;1.20;;;;;;;2.24;90.77;98062.13;5091039;28;20036;-73
2022/03/28 09:48:57;;;;;;;6.82;1.58;;;;;;;2.20;90.01;98049.47;5127453;27;20466;-74
2022/03/28 09:51:27;;;;;;;1.83;1.02;;;;;;;2.23;90.53;98060.50;5104481;27;20035;-73
2022/03/28 09:53:58;;;;;;;2.28;1.00;;;;;;;2.18;90.96;98067.88;5111168;27;20091;-72
2022/03/28 09:56:25;;;;;;;2.35;1.25;;;;;;;2.00;90.17;98062.16;5099707;28;20047;-74
2022/03/28 09:59:01;;;;;;;4.32;1.65;;;;;;;1.87;90.73;98052.00;5129256;27;20505;-75
2022/03/28 10:01:30;;;;;;;3.63;1.02;;;;;;;1.79;91.00;98061.56;5099892;27;20039;-74
2022/03/28 10:04:16;;;;;;;3.10;1.30;;;;;;;1.80;91.07;98059.69;5086931;28;20097;-74
2022/03/28 10:06:42;;;;;;;2.42;1.30;;;;;;;2.02;91.13;98048.31;5083231;28;20048;-73
2022/03/28 10:09:08;;;;;;;3.53;1.20;;;;;;;2.26;91.42;98053.72;5118008;27;20127;-74
2022/03/28 10:11:36;;;;;;;2.58;1.20;;;;;;;2.48;91.69;98055.88;5099737;28;20040;-73
2022/03/28 10:14:02;;;;;;;4.28;1.50;;;;;;;2.63;91.53;98059.19;5122967;27;20085;-73
2022/03/28 10:16:28;;;;;;;3.92;1.48;;;;;;;2.70;91.45;98064.22;5103274;27;20443;-74
2022/03/28 10:18:54;;;;;;;5.15;1.60;;;;;;;2.78;91.46;98060.03;5115741;27;20130;-73
2022/03/28 10:21:26;;;;;;;4.93;1.15;;;;;;;2.92;91.62;98053.59;5107393;27;20062;-74
2022/03/28 10:24:02;;;;;;;1.67;1.17;;;;;;;2.97;90.93;98056.22;5118327;27;20040;-72
2022/03/28 10:26:31;;;;;;;2.38;1.17;;;;;;;3.08;91.21;98053.34;5088596;28;20051;-73
2022/03/28 10:29:08;;;;;;;2.80;1.08;;;;;;;3.02;90.29;98044.50;5096391;28;20039;-73
2022/03/28 10:31:35;;;;;;;3.30;1.30;;;;;;;2.88;89.07;98033.59;5124564;27;20071;-74
2022/03/28 10:34:02;;;;;;;1.95;0.90;;;;;;;2.81;89.13;98022.34;5103801;27;20460;-72
2022/03/28 10:36:30;;;;;;;2.90;1.30;;;;;;;2.75;88.59;98028.94;5116705;27;20414;-73
2022/03/28 10:39:34;;;;;;;2.83;1.08;;;;;;;2.77;88.26;98020.50;5128311;27;20076;-74
2022/03/28 10:42:06;;;;;;;3.67;1.25;;;;;;;2.88;88.56;98019.25;5086768;28;20058;-73
2022/03/28 10:45:00;;;;;;;4.18;1.27;;;;;;;2.84;88.43;98024.47;5119064;28;20031;-74
2022/03/28 10:47:41;;;;;;;3.53;1.25;;;;;;;2.75;87.53;98022.72;5081571;28;20115;-73
2022/03/28 10:50:16;;;;;;;1.45;1.08;;;;;;;2.73;87.47;98036.56;5101473;28;20035;-73
2022/03/28 10:53:08;;;;;;;3.38;1.10;;;;;;;2.75;87.64;98017.28;5109810;28;20077;-74
2022/03/28 10:55:37;;;;;;;2.60;1.20;;;;;;;2.78;87.62;98027.53;5107405;27;20063;-74
2022/03/28 10:58:24;;;;;;;2.38;1.00;;;;;;;2.78;87.32;98022.13;5124729;27;20065;-73
2022/03/28 11:01:09;;;;;;;1.88;0.90;;;;;;;2.85;87.25;98025.28;5100222;27;20039;-74
2022/03/28 11:03:55;;;;;;;2.53;1.00;;;;;;;2.87;86.75;98018.47;5128388;27;20518;-74
2022/03/28 11:07:05;;;;;;;1.77;1.00;;;;;;;2.95;85.23;98022.38;5085407;28;20039;-73
2022/03/28 11:09:50;;;;;;;1.23;0.70;;;;;;;3.01;85.85;98032.88;5111097;27;20088;-74
2022/03/28 11:12:19;;;;;;;2.60;0.98;;;;;;;3.06;85.13;98025.75;5109932;27;20095;-74
2022/03/28 11:14:45;;;;;;;;;;;;;;;3.03;83.91;98032.56;5118454;27;20044;-74
2022/03/28 11:17:22;;;;;;;1.50;1.00;;;;;;;3.08;84.71;98013.50;5127992;27;19919;-74
2022/03/28 11:20:09;;;;;;;3.20;1.00;;;;;;;3.17;83.16;98019.88;5107847;28;20039;-74
2022/03/28 11:23:08;;;;;;;3.83;1.25;;;;;;;3.22;82.44;98025.19;5130850;27;20035;-74
2022/03/28 11:25:42;;;;;;;2.25;0.90;;;;;;;3.25;81.69;98021.09;5108761;27;20042;-73
2022/03/28 11:28:22;;;;;;;0.95;0.82;;;;;;;3.28;81.87;98018.59;5121076;27;20039;-74
2022/03/28 11:31:07;;;;;;;2.47;0.80;;;;;;;3.36;83.06;98027.94;5132015;27;20042;-74
2022/03/28 11:33:34;;;;;;;3.97;1.23;;;;;;;3.22;81.45;98027.91;5113916;27;20566;-73
2022/03/28 11:36:13;;;;;;;3.33;1.25;;;;;;;3.11;80.97;98031.06;5115554;27;20104;-74
2022/03/28 11:38:44;;;;;;;1.40;0.75;;;;;;;3.11;81.29;98029.16;5100726;28;20444;-73
2022/03/28 11:41:12;;;;;;;1.45;0.70;;;;;;;3.14;81.33;98004.22;5102002;27;20043;-73
2022/03/28 11:43:40;;;;;;;1.92;0.80;;;;;;;3.20;80.91;98013.06;5127384;27;20437;-73